createdAt,value
2023-04-02T00:00:11.170Z,4.30
2023-04-02T00:03:08.694Z,5.43
2023-04-02T00:05:50.707Z,3.05
2023-04-02T00:08:23.472Z,3.85
2023-04-02T00:10:51.978Z,3.60
2023-04-02T00:13:25.904Z,3.53
2023-04-02T00:15:57.709Z,4.53
2023-04-02T00:18:25.939Z,3.88
2023-04-02T00:21:09.413Z,4.30
2023-04-02T00:23:40.063Z,3.50
2023-04-02T00:26:41.011Z,3.50
2023-04-02T00:29:10.153Z,4.57
2023-04-02T00:31:39.334Z,3.33
2023-04-02T00:34:08.578Z,3.45
2023-04-02T00:36:37.190Z,3.92
2023-04-02T00:39:11.099Z,4.03
2023-04-02T00:41:38.944Z,4.07
2023-04-02T00:44:06.578Z,4.10
2023-04-02T00:46:47.525Z,3.55
2023-04-02T00:49:23.364Z,4.35
2023-04-02T00:51:55.043Z,4.47
2023-04-02T00:54:25.677Z,4.38
2023-04-02T00:56:55.038Z,4.32
2023-04-02T01:02:11.530Z,4.07
2023-04-02T01:04:38.736Z,5.20
2023-04-02T01:07:09.187Z,5.10
2023-04-02T01:09:43.721Z,4.60
2023-04-02T01:12:34.932Z,7.55
2023-04-02T01:15:30.591Z,3.60
2023-04-02T01:18:19.580Z,5.25
2023-04-02T01:21:10.944Z,3.85
2023-04-02T01:23:45.286Z,3.78
2023-04-02T01:26:50.284Z,8.48
2023-04-02T01:29:42.482Z,5.82
2023-04-02T01:32:12.374Z,5.85
2023-04-02T01:34:41.661Z,8.65
2023-04-02T01:37:22.873Z,5.55
2023-04-02T01:40:01.731Z,5.18
2023-04-02T01:42:41.316Z,9.00
2023-04-02T01:45:11.066Z,8.88
2023-04-02T01:47:38.593Z,5.35
2023-04-02T01:50:26.818Z,4.97
2023-04-02T01:52:56.090Z,4.53
2023-04-02T01:55:44.914Z,4.10
2023-04-02T01:58:14.093Z,3.58
2023-04-02T02:00:52.149Z,8.15
2023-04-02T02:03:20.585Z,5.20
2023-04-02T02:05:47.736Z,5.22
2023-04-02T02:08:42.939Z,4.88
2023-04-02T02:11:21.609Z,7.25
2023-04-02T02:14:02.107Z,3.60
2023-04-02T02:16:30.225Z,4.03
2023-04-02T02:19:03.583Z,6.40
2023-04-02T02:22:04.269Z,4.22
2023-04-02T02:24:32.954Z,6.10
2023-04-02T02:27:22.732Z,4.47
2023-04-02T02:30:27.309Z,3.83
2023-04-02T02:33:01.052Z,6.80
2023-04-02T02:35:37.457Z,4.20
2023-04-02T02:38:28.036Z,6.45
2023-04-02T02:41:03.674Z,3.83
2023-04-02T02:43:30.503Z,3.88
2023-04-02T02:45:58.011Z,6.55
2023-04-02T02:48:33.149Z,5.93
2023-04-02T02:51:00.567Z,4.70
2023-04-02T02:53:27.363Z,4.28
2023-04-02T02:55:58.752Z,6.05
2023-04-02T02:58:31.954Z,5.65
2023-04-02T03:01:06.745Z,4.85
2023-04-02T03:03:37.793Z,4.28
2023-04-02T03:06:10.837Z,7.65
2023-04-02T03:08:51.451Z,4.70
2023-04-02T03:11:33.602Z,4.28
2023-04-02T03:14:12.759Z,4.25
2023-04-02T03:16:45.835Z,4.20
2023-04-02T03:19:27.982Z,5.00
2023-04-02T03:22:07.675Z,4.20
2023-04-02T03:24:49.405Z,4.65
2023-04-02T03:27:44.951Z,4.80
2023-04-02T03:30:32.091Z,4.13
2023-04-02T03:33:13.973Z,5.60
2023-04-02T03:35:43.456Z,4.35
2023-04-02T03:38:16.330Z,5.07
2023-04-02T03:40:54.042Z,6.28
2023-04-02T03:43:27.292Z,4.20
2023-04-02T03:46:24.498Z,5.53
2023-04-02T03:48:55.011Z,4.97
2023-04-02T03:53:51.260Z,6.15
2023-04-02T03:56:27.525Z,4.43
2023-04-02T03:59:06.670Z,5.10
2023-04-02T04:01:39.742Z,5.05
2023-04-02T04:04:12.468Z,6.05
2023-04-02T04:06:42.918Z,7.05
2023-04-02T04:09:37.813Z,6.10
2023-04-02T04:12:07.743Z,5.22
2023-04-02T04:14:44.055Z,5.15
2023-04-02T04:17:16.855Z,5.80
2023-04-02T04:19:49.493Z,5.50
2023-04-02T04:22:19.159Z,4.72
2023-04-02T04:24:49.867Z,5.35
2023-04-02T04:27:48.767Z,7.18
2023-04-02T04:30:45.515Z,4.78
2023-04-02T04:33:23.351Z,4.78
2023-04-02T04:36:04.127Z,6.68
2023-04-02T04:38:39.718Z,7.95
2023-04-02T04:41:19.058Z,4.57
2023-04-02T04:44:00.333Z,6.47
2023-04-02T04:46:42.589Z,5.90
2023-04-02T04:49:20.340Z,4.60
2023-04-02T04:51:53.546Z,6.75
2023-04-02T04:54:26.253Z,5.03
2023-04-02T04:57:02.821Z,5.55
2023-04-02T04:59:41.506Z,9.50
2023-04-02T05:02:23.065Z,5.15
2023-04-02T05:04:52.380Z,6.85
2023-04-02T05:07:32.374Z,5.82
2023-04-02T05:10:12.548Z,7.68
2023-04-02T05:12:49.477Z,6.75
2023-04-02T05:15:32.220Z,7.63
2023-04-02T05:18:30.198Z,4.70
2023-04-02T05:21:06.917Z,7.05
2023-04-02T05:23:39.288Z,5.15
2023-04-02T05:26:16.453Z,4.47
2023-04-02T05:28:51.675Z,5.18
2023-04-02T05:31:29.189Z,4.53
2023-04-02T05:33:56.761Z,4.32
2023-04-02T05:36:29.272Z,7.50
2023-04-02T05:39:00.220Z,5.40
2023-04-02T05:41:42.134Z,3.95
2023-04-02T05:44:15.963Z,6.15
2023-04-02T05:46:50.734Z,4.65
2023-04-02T05:49:29.245Z,4.68
2023-04-02T05:51:59.006Z,6.43
2023-04-02T05:54:33.280Z,5.10
2023-04-02T05:57:14.154Z,4.95
2023-04-02T05:59:44.938Z,6.20
2023-04-02T06:02:24.352Z,6.15
2023-04-02T06:05:24.458Z,6.28
2023-04-02T06:07:59.145Z,6.38
2023-04-02T06:10:30.008Z,4.80
2023-04-02T06:13:02.297Z,6.57
2023-04-02T06:15:32.850Z,5.20
2023-04-02T06:18:26.115Z,5.57
2023-04-02T06:20:54.476Z,8.60
2023-04-02T06:23:32.178Z,10.27
2023-04-02T06:26:24.276Z,12.23
2023-04-02T06:29:23.121Z,6.40
2023-04-02T06:32:02.709Z,9.93
2023-04-02T06:34:31.648Z,7.55
2023-04-02T06:37:21.689Z,6.63
2023-04-02T06:39:52.794Z,6.60
2023-04-02T06:42:24.544Z,5.75
2023-04-02T06:45:16.767Z,9.63
2023-04-02T06:47:49.577Z,8.35
2023-04-02T06:50:59.601Z,10.18
2023-04-02T06:53:30.571Z,6.10
2023-04-02T06:56:04.731Z,5.68
2023-04-02T06:58:33.216Z,8.13
2023-04-02T07:01:00.907Z,5.82
2023-04-02T07:03:42.153Z,7.82
2023-04-02T07:06:17.645Z,9.63
2023-04-02T07:08:46.520Z,11.15
2023-04-02T07:11:18.717Z,5.63
2023-04-02T07:13:49.137Z,7.25
2023-04-02T07:16:26.666Z,7.78
2023-04-02T07:19:01.247Z,6.65
2023-04-02T07:21:31.427Z,7.18
2023-04-02T07:23:58.372Z,4.55
2023-04-02T07:26:27.930Z,5.93
2023-04-02T07:31:25.747Z,5.82
2023-04-02T07:33:54.990Z,6.25
2023-04-02T07:36:23.841Z,7.03
2023-04-02T07:38:50.884Z,8.70
2023-04-02T07:41:18.299Z,9.50
2023-04-02T07:43:45.449Z,5.03
2023-04-02T07:46:15.138Z,6.47
2023-04-02T07:48:42.255Z,6.22
2023-04-02T07:51:23.645Z,5.72
2023-04-02T07:53:55.688Z,6.55
2023-04-02T07:56:24.277Z,4.57
2023-04-02T07:58:51.440Z,5.93
2023-04-02T08:01:26.594Z,5.82
2023-04-02T08:03:54.924Z,6.85
2023-04-02T08:06:22.120Z,5.78
2023-04-02T08:08:48.950Z,4.03
2023-04-02T08:11:16.036Z,6.38
2023-04-02T08:13:43.008Z,5.47
2023-04-02T08:16:10.619Z,6.10
2023-04-02T08:18:37.736Z,4.93
2023-04-02T08:21:07.961Z,4.18
2023-04-02T08:23:35.787Z,5.18
2023-04-02T08:26:03.007Z,6.90
2023-04-02T08:28:30.173Z,8.02
2023-04-02T08:30:57.215Z,4.22
2023-04-02T08:33:24.047Z,5.25
2023-04-02T08:35:51.191Z,6.18
2023-04-02T08:38:20.304Z,6.07
2023-04-02T08:40:52.157Z,11.80
2023-04-02T08:43:28.781Z,5.88
2023-04-02T08:46:01.853Z,6.95
2023-04-02T08:48:31.334Z,4.38
2023-04-02T08:50:58.991Z,4.57
2023-04-02T08:53:29.337Z,4.50
2023-04-02T08:56:17.808Z,5.95
2023-04-02T08:58:48.813Z,5.30
2023-04-02T09:01:36.220Z,5.63
2023-04-02T09:04:07.183Z,4.68
2023-04-02T09:06:34.813Z,5.63
2023-04-02T09:09:01.722Z,5.90
2023-04-02T09:11:39.589Z,5.15
2023-04-02T09:14:16.203Z,3.92
2023-04-02T09:16:58.803Z,3.78
2023-04-02T09:19:31.511Z,4.70
2023-04-02T09:22:19.792Z,7.47
2023-04-02T09:24:54.616Z,4.55
2023-04-02T09:27:31.004Z,4.47
2023-04-02T09:30:06.881Z,4.90
2023-04-02T09:32:50.070Z,3.50
2023-04-02T09:35:26.597Z,3.03
2023-04-02T09:38:18.595Z,3.55
2023-04-02T09:40:55.610Z,4.35
2023-04-02T09:43:40.803Z,4.93
2023-04-02T09:46:13.839Z,3.80
2023-04-02T09:48:46.754Z,4.70
2023-04-02T09:51:21.745Z,4.30
2023-04-02T09:53:51.249Z,4.25
2023-04-02T09:56:23.160Z,5.88
2023-04-02T09:59:15.173Z,5.32
2023-04-02T10:01:45.072Z,6.25
2023-04-02T10:04:48.129Z,4.97
2023-04-02T10:07:41.475Z,4.45
2023-04-02T10:10:17.529Z,4.55
2023-04-02T10:12:46.834Z,4.75
2023-04-02T10:15:21.673Z,3.05
2023-04-02T10:17:58.785Z,3.63
2023-04-02T10:20:27.186Z,3.50
2023-04-02T10:22:54.114Z,4.75
2023-04-02T10:25:22.221Z,3.95
2023-04-02T10:28:14.871Z,3.60
2023-04-02T10:30:44.721Z,6.03
2023-04-02T10:33:30.082Z,3.90
2023-04-02T10:36:21.324Z,2.78
2023-04-02T10:39:01.728Z,2.67
2023-04-02T10:41:34.110Z,4.25
2023-04-02T10:44:20.269Z,3.15
2023-04-02T10:47:12.508Z,3.30
2023-04-02T10:50:08.692Z,3.50
2023-04-02T10:53:02.408Z,4.28
2023-04-02T10:55:32.217Z,5.70
2023-04-02T10:58:03.160Z,4.38
2023-04-02T11:00:35.073Z,6.13
2023-04-02T11:03:08.167Z,5.45
2023-04-02T11:05:43.300Z,4.45
2023-04-02T11:08:39.841Z,3.75
2023-04-02T11:11:18.969Z,6.07
2023-04-02T11:14:28.211Z,4.18
2023-04-02T11:19:26.275Z,4.13
2023-04-02T11:22:00.032Z,4.78
2023-04-02T11:24:33.609Z,5.28
2023-04-02T11:27:15.459Z,4.55
2023-04-02T11:30:03.062Z,3.28
2023-04-02T11:32:42.806Z,3.05
2023-04-02T11:35:32.056Z,4.75
2023-04-02T11:38:22.750Z,5.55
2023-04-02T11:40:50.776Z,12.10
2023-04-02T11:43:32.954Z,10.73
2023-04-02T11:46:16.628Z,9.55
2023-04-02T11:48:43.702Z,8.00
2023-04-02T11:51:22.850Z,11.13
2023-04-02T11:53:51.602Z,11.25
2023-04-02T11:56:42.680Z,7.65
2023-04-02T11:59:21.697Z,9.13
2023-04-02T12:02:03.622Z,7.75
2023-04-02T12:04:34.488Z,6.88
2023-04-02T12:07:26.695Z,12.23
2023-04-02T12:09:59.256Z,3.97
2023-04-02T12:12:29.237Z,5.45
2023-04-02T12:14:57.944Z,2.45
2023-04-02T12:17:35.473Z,7.95
2023-04-02T12:20:09.554Z,3.47
2023-04-02T12:22:46.442Z,9.15
2023-04-02T12:25:39.980Z,5.55
2023-04-02T12:28:09.863Z,3.58
2023-04-02T12:30:38.024Z,5.03
2023-04-02T12:33:20.287Z,3.38
2023-04-02T12:35:48.176Z,3.22
2023-04-02T12:38:23.771Z,3.58
2023-04-02T12:40:53.734Z,3.38
2023-04-02T12:43:46.799Z,7.07
2023-04-02T12:46:14.751Z,12.77
2023-04-02T12:48:41.644Z,11.15
2023-04-02T12:51:10.586Z,22.65
2023-04-02T12:53:39.889Z,10.40
2023-04-02T12:58:41.423Z,9.37
2023-04-02T13:01:18.704Z,40.60
2023-04-02T13:04:07.387Z,27.80
2023-04-02T13:06:35.744Z,21.13
2023-04-02T13:09:05.111Z,20.88
2023-04-02T13:14:15.336Z,28.45
2023-04-02T13:16:42.090Z,12.75
2023-04-02T13:19:22.749Z,19.38
2023-04-02T13:21:50.284Z,18.60
2023-04-02T13:24:25.236Z,13.77
2023-04-02T13:26:56.420Z,19.95
2023-04-02T13:29:24.449Z,16.15
2023-04-02T13:31:52.433Z,9.90
2023-04-02T13:34:19.611Z,18.33
2023-04-02T13:36:47.134Z,11.80
2023-04-02T13:39:14.079Z,18.30
2023-04-02T13:41:45.870Z,13.50
2023-04-02T13:44:33.479Z,18.23
2023-04-02T13:47:01.399Z,11.15
2023-04-02T13:49:28.917Z,12.32
2023-04-02T13:52:00.884Z,5.55
2023-04-02T13:54:45.778Z,5.18
2023-04-02T13:57:12.896Z,9.40
2023-04-02T13:59:40.115Z,10.27
2023-04-02T14:02:11.234Z,5.85
2023-04-02T14:04:42.300Z,6.78
2023-04-02T14:07:36.935Z,3.63
2023-04-02T14:10:28.354Z,7.90
2023-04-02T14:13:13.709Z,5.80
2023-04-02T14:16:18.730Z,13.52
2023-04-02T14:19:04.426Z,14.23
2023-04-02T14:21:38.211Z,8.93
2023-04-02T14:24:30.414Z,10.52
2023-04-02T14:27:27.090Z,21.50
2023-04-02T14:30:08.118Z,22.15
2023-04-02T14:32:55.507Z,10.90
2023-04-02T14:35:34.443Z,22.70
2023-04-02T14:40:51.725Z,10.25
2023-04-02T14:43:24.559Z,11.82
2023-04-02T14:46:00.921Z,15.70
2023-04-02T14:48:43.735Z,15.40
2023-04-02T14:51:29.434Z,10.05
2023-04-02T14:54:16.859Z,14.77
2023-04-02T14:56:54.023Z,18.88
2023-04-02T14:59:42.803Z,10.52
2023-04-02T15:02:19.260Z,15.85
2023-04-02T15:05:01.194Z,38.08
2023-04-02T15:07:38.497Z,26.33
2023-04-02T15:10:25.333Z,42.22
2023-04-02T15:12:53.891Z,50.53
2023-04-02T15:15:39.369Z,37.80
2023-04-02T15:18:17.834Z,81.32
2023-04-02T15:20:59.689Z,107.82
2023-04-02T15:23:46.068Z,140.77
2023-04-02T15:26:38.985Z,123.38
2023-04-02T15:29:39.805Z,119.03
2023-04-02T15:32:32.214Z,120.70
2023-04-02T15:35:16.893Z,88.00
2023-04-02T15:38:12.233Z,94.30
2023-04-02T15:41:17.405Z,78.88
2023-04-02T15:44:00.823Z,103.97
2023-04-02T15:46:55.670Z,69.88
2023-04-02T15:49:39.986Z,54.70
2023-04-02T15:52:34.514Z,16.35
2023-04-02T15:55:17.433Z,11.93
2023-04-02T15:58:12.777Z,8.75
2023-04-02T16:00:47.823Z,10.32
2023-04-02T16:03:34.006Z,14.80
2023-04-02T16:06:10.673Z,12.32
2023-04-02T16:08:45.939Z,10.90
2023-04-02T16:11:15.116Z,21.13
2023-04-02T16:16:27.925Z,10.02
2023-04-02T16:19:34.861Z,13.45
2023-04-02T16:22:30.427Z,16.63
2023-04-02T16:25:19.514Z,23.08
2023-04-02T16:28:02.190Z,22.80
2023-04-02T16:31:16.841Z,18.60
2023-04-02T16:33:53.068Z,24.92
2023-04-02T16:36:42.164Z,16.98
2023-04-02T16:42:04.731Z,21.17
2023-04-02T16:44:50.596Z,21.90
2023-04-02T16:47:26.434Z,15.80
2023-04-02T16:50:33.430Z,26.20
2023-04-02T16:53:27.088Z,23.17
2023-04-02T16:56:07.874Z,18.55
2023-04-02T16:58:57.907Z,18.45
2023-04-02T17:01:36.172Z,23.10
2023-04-02T17:04:23.947Z,14.50
2023-04-02T17:07:11.349Z,19.92
2023-04-02T17:09:44.051Z,17.67
2023-04-02T17:12:21.860Z,15.02
2023-04-02T17:14:55.961Z,16.83
2023-04-02T17:17:23.302Z,14.40
2023-04-02T17:19:53.442Z,15.68
2023-04-02T17:22:21.873Z,18.38
2023-04-02T17:24:58.667Z,15.43
2023-04-02T17:27:32.731Z,18.75
2023-04-02T17:30:25.755Z,14.00
2023-04-02T17:32:52.538Z,18.25
2023-04-02T17:35:40.410Z,14.18
2023-04-02T17:38:26.267Z,12.00
2023-04-02T17:41:32.487Z,14.52
2023-04-02T17:44:06.704Z,18.80
2023-04-02T17:46:54.851Z,16.25
2023-04-02T17:49:42.850Z,11.73
2023-04-02T17:52:25.255Z,14.88
2023-04-02T17:55:08.123Z,11.98
2023-04-02T17:57:44.213Z,12.85
2023-04-02T18:00:48.676Z,14.07
2023-04-02T18:03:47.429Z,14.05
2023-04-02T18:06:22.158Z,13.27
2023-04-02T18:09:16.574Z,14.40
2023-04-02T18:12:01.977Z,10.95
2023-04-02T18:14:48.649Z,10.88
2023-04-02T18:17:44.174Z,12.18
2023-04-02T18:20:17.171Z,11.13
2023-04-02T18:22:53.269Z,16.65
2023-04-02T18:25:56.122Z,11.45
2023-04-02T18:28:37.423Z,11.02
2023-04-02T18:31:24.187Z,8.73
2023-04-02T18:34:13.295Z,10.15
2023-04-02T18:37:05.095Z,13.30
2023-04-02T18:40:08.865Z,10.60
2023-04-02T18:42:58.668Z,10.85
2023-04-02T18:45:58.716Z,10.95
2023-04-02T18:48:46.360Z,14.57
2023-04-02T18:51:21.924Z,10.80
2023-04-02T18:54:06.602Z,10.18
2023-04-02T18:56:33.462Z,8.48
2023-04-02T18:59:14.746Z,29.52
2023-04-02T19:01:44.432Z,20.65
2023-04-02T19:04:17.501Z,15.20
2023-04-02T19:06:46.747Z,13.32
2023-04-02T19:09:17.177Z,8.82
2023-04-02T19:11:43.883Z,12.82
2023-04-02T19:14:16.169Z,10.43
2023-04-02T19:17:04.869Z,11.77
2023-04-02T19:20:00.835Z,10.55
2023-04-02T19:22:46.463Z,12.18
2023-04-02T19:25:36.689Z,11.82
2023-04-02T19:28:29.190Z,12.40
2023-04-02T19:31:09.198Z,8.00
2023-04-02T19:33:42.602Z,9.23
2023-04-02T19:36:23.479Z,11.65
2023-04-02T19:39:13.655Z,9.63
2023-04-02T19:41:47.878Z,11.40
2023-04-02T19:44:15.503Z,10.98
2023-04-02T19:46:42.662Z,10.40
2023-04-02T19:49:24.867Z,14.90
2023-04-02T19:51:51.864Z,16.73
2023-04-02T19:54:18.975Z,12.25
2023-04-02T19:56:45.969Z,13.77
2023-04-02T19:59:18.106Z,10.95
2023-04-02T20:01:46.095Z,14.50
2023-04-02T20:04:13.533Z,14.95
2023-04-02T20:06:40.388Z,14.15
2023-04-02T20:09:08.576Z,9.07
2023-04-02T20:11:37.048Z,9.45
2023-04-02T20:14:04.031Z,9.63
2023-04-02T20:16:31.249Z,10.98
2023-04-02T20:18:58.200Z,13.82
2023-04-02T20:21:24.945Z,13.63
2023-04-02T20:23:55.422Z,13.10
2023-04-02T20:26:22.645Z,12.55
2023-04-02T20:28:49.635Z,10.20
2023-04-02T20:31:18.452Z,9.80
2023-04-02T20:33:46.043Z,7.57
2023-04-02T20:36:15.701Z,8.80
2023-04-02T20:38:43.317Z,7.47
2023-04-02T20:41:10.339Z,7.68
2023-04-02T20:43:40.401Z,8.20
2023-04-02T20:46:10.012Z,11.60
2023-04-02T20:48:37.819Z,8.77
2023-04-02T20:51:06.976Z,7.63
2023-04-02T20:53:35.027Z,9.40
2023-04-02T20:56:05.495Z,12.20
2023-04-02T20:58:32.965Z,10.48
2023-04-02T21:01:25.341Z,7.53
2023-04-02T21:04:00.369Z,7.82
2023-04-02T21:06:29.924Z,10.27
2023-04-02T21:11:24.628Z,8.27
2023-04-02T21:13:51.714Z,6.60
2023-04-02T21:16:22.501Z,6.78
2023-04-02T21:18:51.673Z,7.65
2023-04-02T21:21:19.147Z,6.80
2023-04-02T21:23:46.314Z,7.13
2023-04-02T21:26:17.920Z,8.50
2023-04-02T21:28:45.544Z,7.90
2023-04-02T21:31:21.111Z,8.63
2023-04-02T21:33:58.314Z,6.75
2023-04-02T21:36:27.672Z,7.20
2023-04-02T21:38:57.104Z,7.40
2023-04-02T21:43:53.872Z,8.45
2023-04-02T21:46:23.117Z,7.53
2023-04-02T21:48:50.679Z,7.22
2023-04-02T21:51:19.654Z,6.85
2023-04-02T21:53:46.897Z,7.45
2023-04-02T21:56:19.377Z,7.03
2023-04-02T21:58:47.127Z,6.57
2023-04-02T22:01:26.802Z,9.27
2023-04-02T22:03:58.689Z,6.65
2023-04-02T22:06:27.434Z,7.70
2023-04-02T22:08:59.484Z,7.30
2023-04-02T22:11:31.968Z,6.38
2023-04-02T22:13:59.176Z,7.40
2023-04-02T22:16:28.155Z,8.10
2023-04-02T22:18:56.856Z,6.68
2023-04-02T22:21:23.741Z,7.27
2023-04-02T22:23:50.484Z,6.63
2023-04-02T22:26:18.461Z,8.02
2023-04-02T22:28:45.709Z,6.63
2023-04-02T22:31:20.937Z,6.88
2023-04-02T22:33:48.506Z,7.05
2023-04-02T22:36:16.441Z,8.20
2023-04-02T22:38:43.508Z,8.63
2023-04-02T22:41:11.925Z,6.30
2023-04-02T22:43:39.690Z,5.15
2023-04-02T22:46:08.035Z,8.55
2023-04-02T22:48:36.196Z,8.95
2023-04-02T22:51:02.959Z,7.50
2023-04-02T22:53:30.588Z,6.65
2023-04-02T22:56:07.154Z,7.22
2023-04-02T22:58:34.613Z,5.82
2023-04-02T23:01:28.548Z,6.32
2023-04-02T23:03:55.921Z,7.38
2023-04-02T23:06:23.892Z,6.85
2023-04-02T23:08:50.904Z,7.15
2023-04-02T23:11:19.849Z,5.53
2023-04-02T23:13:48.582Z,6.22
2023-04-02T23:16:15.897Z,6.03
2023-04-02T23:18:43.368Z,5.78
2023-04-02T23:21:11.657Z,7.15
2023-04-02T23:23:38.704Z,7.20
2023-04-02T23:26:07.861Z,7.00
2023-04-02T23:28:35.934Z,5.85
2023-04-02T23:31:03.857Z,5.57
2023-04-02T23:33:30.873Z,6.03
2023-04-02T23:35:58.352Z,7.18
2023-04-02T23:38:25.583Z,9.10
2023-04-02T23:40:53.162Z,4.38
2023-04-02T23:43:19.880Z,4.57
2023-04-02T23:45:48.548Z,5.55
2023-04-02T23:48:15.964Z,4.83
2023-04-02T23:50:44.607Z,5.72
2023-04-02T23:53:12.023Z,6.30
2023-04-02T23:55:39.474Z,7.97
2023-04-02T23:58:06.260Z,7.07
